This is the latest recevied weather packets stored in our database for station/object SQ6PCH-10. If no packets are shown the sender has not sent any weather packets the latest 10 day(s).
| Time | Temp. | Humidity | Pressure | Rain* | Wind** | Luminosity | Snow |
|---|---|---|---|---|---|---|---|
| 1777717073 | 28.89° C | 15% | 1009.4 hPa | - | - | - | - |
| 1777716472 | 30.56° C | 13% | 1009.5 hPa | - | - | - | - |
| 1777715872 | 31.11° C | 13% | 1009.6 hPa | - | - | - | - |
| 1777715272 | 30.56° C | 15% | 1009.8 hPa | - | - | - | - |
| 1777714671 | 28.33° C | 16% | 1009.8 hPa | - | - | - | - |
| 1777714071 | 28.33° C | 16% | 1010 hPa | - | - | - | - |
| 1777713471 | 27.78° C | 17% | 1010.1 hPa | - | - | - | - |
| 1777712871 | 27.78° C | 17% | 1010.1 hPa | - | - | - | - |
| 1777712271 | 26.67° C | 19% | 1010.2 hPa | - | - | - | - |
| 1777711671 | 25.56° C | 21% | 1010.2 hPa | - | - | - | - |
| 1777711070 | 25.56° C | 23% | 1010.2 hPa | - | - | - | - |
| 1777710470 | 25.56° C | 24% | 1010.3 hPa | - | - | - | - |
| 1777709870 | 24.44° C | 26% | 1010.3 hPa | - | - | - | - |
| 1777709270 | 23.89° C | 26% | 1010.5 hPa | - | - | - | - |
| 1777708670 | 22.78° C | 29% | 1010.5 hPa | - | - | - | - |
| 1777708070 | 21.67° C | 33% | 1010.4 hPa | - | - | - | - |
| 1777707470 | 21.67° C | 32% | 1010.5 hPa | - | - | - | - |
| 1777706869 | 20° C | 37% | 1010.5 hPa | - | - | - | - |
| 1777706269 | 17.78° C | 42% | 1010.4 hPa | - | - | - | - |
| 1777705669 | 16.67° C | 47% | 1010.3 hPa | - | - | - | - |
| 1777705069 | 16.11° C | 51% | 1010.4 hPa | - | - | - | - |
| 1777704469 | 15.56° C | 53% | 1010.4 hPa | - | - | - | - |
| 1777703868 | 14.44° C | 55% | 1010.4 hPa | - | - | - | - |
| 1777703268 | 13.89° C | 57% | 1010.5 hPa | - | - | - | - |
| 1777702668 | 12.78° C | 62% | 1010.4 hPa | - | - | - | - |
* Rain since midnight (hover to see other rain measurements)
** Current wind speed in m/s (hover to see current wind gust speed)